Terminal Aerodrome Forecast
Issued by NWS

Home | Current Version | Previous Version | Text Only | Print | Product List | Glossary On
Versions: 1 2 3 4 5 6 7 8 9 10 11 12
000
FTUS45 KTFX 271720
TAFBZN
TAF
KBZN 271720Z 2718/2824 VRB05KT P6SM FEW080 FEW250
     FM280000 26009KT P6SM VCSH SCT070 BKN090
     FM280300 VRB05KT P6SM SCT060 BKN090=

USA.gov is the U.S. government's official web portal to all federal, state and local government web resources and services.